createdAt,value
2018-11-05T00:01:38.811Z,10.00
2018-11-05T00:04:07.614Z,10.00
2018-11-05T00:06:36.681Z,10.00
2018-11-05T00:09:08.044Z,10.00
2018-11-05T00:11:37.332Z,9.90
2018-11-05T00:14:05.961Z,10.00
2018-11-05T00:16:34.852Z,10.00
2018-11-05T00:19:03.829Z,9.90
2018-11-05T00:21:32.824Z,9.90
2018-11-05T00:24:02.941Z,10.00
2018-11-05T00:26:31.947Z,10.00
2018-11-05T00:29:00.866Z,9.90
2018-11-05T00:31:29.770Z,10.00
2018-11-05T00:33:58.855Z,9.90
2018-11-05T00:36:27.457Z,9.90
2018-11-05T00:38:57.332Z,9.90
2018-11-05T00:41:27.003Z,9.90
2018-11-05T00:43:55.590Z,10.00
2018-11-05T00:46:24.067Z,9.90
2018-11-05T00:48:52.382Z,9.90
2018-11-05T00:51:21.822Z,9.90
2018-11-05T00:53:50.061Z,9.90
2018-11-05T00:56:18.292Z,9.90
2018-11-05T00:58:46.542Z,9.90
2018-11-05T01:01:14.733Z,9.90
2018-11-05T01:03:42.962Z,9.90
2018-11-05T01:06:11.183Z,9.90
2018-11-05T01:08:39.428Z,9.90
2018-11-05T01:11:07.662Z,9.90
2018-11-05T01:13:35.877Z,9.90
2018-11-05T01:16:04.184Z,9.90
2018-11-05T01:18:32.431Z,9.90
2018-11-05T01:21:00.622Z,9.90
2018-11-05T01:23:28.855Z,9.90
2018-11-05T01:25:57.130Z,9.90
2018-11-05T01:28:25.406Z,9.90
2018-11-05T01:30:53.684Z,9.90
2018-11-05T01:33:22.519Z,9.90
2018-11-05T01:35:50.785Z,9.90
2018-11-05T01:38:19.023Z,9.90
2018-11-05T01:40:47.234Z,9.80
2018-11-05T01:43:15.472Z,9.80
2018-11-05T01:45:43.681Z,9.90
2018-11-05T01:48:11.922Z,9.90
2018-11-05T01:50:40.198Z,9.80
2018-11-05T01:53:08.463Z,9.80
2018-11-05T01:55:36.717Z,9.80
2018-11-05T01:58:05.785Z,9.80
2018-11-05T02:00:34.101Z,9.90
2018-11-05T02:03:02.435Z,9.90
2018-11-05T02:05:30.655Z,9.90
2018-11-05T02:07:58.900Z,9.90
2018-11-05T02:10:27.174Z,9.80
2018-11-05T02:12:55.294Z,9.90
2018-11-05T02:15:23.570Z,9.80
2018-11-05T02:17:51.900Z,9.80
2018-11-05T02:20:20.119Z,9.90
2018-11-05T02:22:48.300Z,9.90
2018-11-05T02:25:16.580Z,9.90
2018-11-05T02:27:44.830Z,9.80
2018-11-05T02:30:16.078Z,9.80
2018-11-05T02:32:44.610Z,9.80
2018-11-05T02:35:13.742Z,9.90
2018-11-05T02:37:42.729Z,9.90
2018-11-05T02:40:14.480Z,9.90
2018-11-05T02:42:43.261Z,10.00
2018-11-05T02:45:12.924Z,10.00
2018-11-05T02:47:41.175Z,9.90
2018-11-05T02:50:10.708Z,9.90
2018-11-05T02:52:39.852Z,10.00
2018-11-05T02:55:08.267Z,10.00
2018-11-05T02:57:37.044Z,9.90
2018-11-05T03:00:07.563Z,9.90
2018-11-05T03:02:35.785Z,9.90
2018-11-05T03:05:04.618Z,9.90
2018-11-05T03:07:32.863Z,9.90
2018-11-05T03:10:01.045Z,9.90
2018-11-05T03:12:29.352Z,9.90
2018-11-05T03:14:57.562Z,9.90
2018-11-05T03:17:26.004Z,9.90
2018-11-05T03:19:54.224Z,9.90
2018-11-05T03:22:22.420Z,9.90
2018-11-05T03:24:50.655Z,9.90
2018-11-05T03:27:18.875Z,9.80
2018-11-05T03:29:47.060Z,9.90
2018-11-05T03:32:15.315Z,9.90
2018-11-05T03:34:43.599Z,9.80
2018-11-05T03:37:11.847Z,9.90
2018-11-05T03:39:40.044Z,9.90
2018-11-05T03:42:08.279Z,9.90
2018-11-05T03:44:36.462Z,9.90
2018-11-05T03:47:05.009Z,9.90
2018-11-05T03:49:33.215Z,9.90
2018-11-05T03:52:01.435Z,9.80
2018-11-05T03:54:29.659Z,9.90
2018-11-05T03:56:57.898Z,9.80
2018-11-05T03:59:26.088Z,9.80
2018-11-05T04:01:54.332Z,9.80
2018-11-05T04:04:22.539Z,9.80
2018-11-05T04:06:50.814Z,9.80
2018-11-05T04:09:19.068Z,9.80
2018-11-05T04:11:47.266Z,9.80
2018-11-05T04:14:15.523Z,9.80
2018-11-05T04:16:43.800Z,9.90
2018-11-05T04:19:11.996Z,9.90
2018-11-05T04:21:42.098Z,9.90
2018-11-05T04:24:11.263Z,9.90
2018-11-05T04:26:40.204Z,9.80
2018-11-05T04:29:08.659Z,9.80
2018-11-05T04:31:37.556Z,9.90
2018-11-05T04:34:05.852Z,9.90
2018-11-05T04:36:34.305Z,9.90
2018-11-05T04:39:02.518Z,10.00
2018-11-05T04:41:30.903Z,9.90
2018-11-05T04:43:59.078Z,10.00
2018-11-05T04:46:27.311Z,10.00
2018-11-05T04:48:55.633Z,9.90
2018-11-05T04:51:23.864Z,10.00
2018-11-05T04:53:52.057Z,9.90
2018-11-05T04:56:20.349Z,10.00
2018-11-05T04:58:48.572Z,10.00
2018-11-05T05:01:16.847Z,10.00
2018-11-05T05:03:45.072Z,10.00
2018-11-05T05:06:13.296Z,10.00
2018-11-05T05:08:41.627Z,10.10
2018-11-05T05:11:09.792Z,10.20
2018-11-05T05:13:38.019Z,10.20
2018-11-05T05:16:06.365Z,10.20
2018-11-05T05:18:34.512Z,10.20
2018-11-05T05:21:02.755Z,10.30
2018-11-05T05:23:31.004Z,10.30
2018-11-05T05:25:59.203Z,10.30
2018-11-05T05:28:27.398Z,10.30
2018-11-05T05:30:55.599Z,10.30
2018-11-05T05:33:23.859Z,10.40
2018-11-05T05:35:52.035Z,10.40
2018-11-05T05:38:20.263Z,10.40
2018-11-05T05:40:48.500Z,10.50
2018-11-05T05:43:16.761Z,10.50
2018-11-05T05:45:45.012Z,10.50
2018-11-05T05:48:13.235Z,10.60
2018-11-05T05:50:41.435Z,10.60
2018-11-05T05:53:09.642Z,10.60
2018-11-05T05:55:37.839Z,10.60
2018-11-05T05:58:06.197Z,10.60
2018-11-05T06:00:34.485Z,10.60
2018-11-05T06:03:02.715Z,10.60
2018-11-05T06:05:30.906Z,10.60
2018-11-05T06:07:59.116Z,10.60
2018-11-05T06:10:27.317Z,10.60
2018-11-05T06:12:55.569Z,10.60
2018-11-05T06:15:23.872Z,10.70
2018-11-05T06:17:52.084Z,10.70
2018-11-05T06:20:20.774Z,10.70
2018-11-05T06:22:49.715Z,10.70
2018-11-05T06:25:18.265Z,10.70
2018-11-05T06:27:46.561Z,10.70
2018-11-05T06:30:16.965Z,10.60
2018-11-05T06:32:46.121Z,10.70
2018-11-05T06:35:14.432Z,10.60
2018-11-05T06:37:42.760Z,10.60
2018-11-05T06:40:13.088Z,10.60
2018-11-05T06:42:41.792Z,10.60
2018-11-05T06:45:12.393Z,10.60
2018-11-05T06:47:41.718Z,10.60
2018-11-05T06:50:12.033Z,10.60
2018-11-05T06:52:40.768Z,10.70
2018-11-05T06:55:10.140Z,10.60
2018-11-05T06:57:38.808Z,10.60
2018-11-05T07:00:10.419Z,10.70
2018-11-05T07:02:38.778Z,10.60
2018-11-05T07:05:07.149Z,10.60
2018-11-05T07:07:35.544Z,10.60
2018-11-05T07:10:03.900Z,10.60
2018-11-05T07:12:32.099Z,10.70
2018-11-05T07:15:00.356Z,10.70
2018-11-05T07:17:28.583Z,10.70
2018-11-05T07:19:56.866Z,10.70
2018-11-05T07:22:25.147Z,10.70
2018-11-05T07:24:53.396Z,10.70
2018-11-05T07:27:21.905Z,10.70
2018-11-05T07:29:50.677Z,10.80
2018-11-05T07:32:19.230Z,10.70
2018-11-05T07:34:48.125Z,10.80
2018-11-05T07:37:16.549Z,10.70
2018-11-05T07:39:45.634Z,10.70
2018-11-05T07:42:15.291Z,10.70
2018-11-05T07:44:44.631Z,10.70
2018-11-05T07:47:13.652Z,10.70
2018-11-05T07:49:42.695Z,10.70
2018-11-05T07:52:11.838Z,10.70
2018-11-05T07:54:41.025Z,10.70
2018-11-05T07:57:09.970Z,10.80
2018-11-05T07:59:39.192Z,10.80
2018-11-05T08:02:07.911Z,10.70
2018-11-05T08:04:37.337Z,10.70
2018-11-05T08:07:05.619Z,10.70
2018-11-05T08:09:33.917Z,10.70
2018-11-05T08:12:02.147Z,10.70
2018-11-05T08:14:31.420Z,10.70
2018-11-05T08:17:00.205Z,10.70
2018-11-05T08:19:29.482Z,10.80
2018-11-05T08:21:57.983Z,10.80
2018-11-05T08:24:26.798Z,10.80
2018-11-05T08:26:56.478Z,10.70
2018-11-05T08:29:25.448Z,10.80
2018-11-05T08:31:55.128Z,10.70
2018-11-05T08:34:24.707Z,10.70
2018-11-05T08:36:53.337Z,10.80
2018-11-05T08:39:21.597Z,10.80
2018-11-05T08:41:49.820Z,10.70
2018-11-05T08:44:18.047Z,10.70
2018-11-05T08:46:46.255Z,10.70
2018-11-05T08:49:14.460Z,10.70
2018-11-05T08:51:43.135Z,10.70
2018-11-05T08:54:11.083Z,10.70
2018-11-05T08:56:39.287Z,10.70
2018-11-05T08:59:07.541Z,10.70
2018-11-05T09:01:37.423Z,10.80
2018-11-05T09:04:05.672Z,10.80
2018-11-05T09:06:34.443Z,10.80
2018-11-05T09:09:02.856Z,10.80
2018-11-05T09:11:31.540Z,10.90
2018-11-05T09:13:59.813Z,10.80
2018-11-05T09:16:28.724Z,10.90
2018-11-05T09:18:57.079Z,10.90
2018-11-05T09:21:25.423Z,10.90
2018-11-05T09:23:53.677Z,10.80
2018-11-05T09:26:21.931Z,10.80
2018-11-05T09:28:50.233Z,10.90
2018-11-05T09:31:18.550Z,10.90
2018-11-05T09:33:46.749Z,11.00
2018-11-05T09:36:15.121Z,10.90
2018-11-05T09:38:43.373Z,11.00
2018-11-05T09:41:11.612Z,11.00
2018-11-05T09:43:39.868Z,11.00
2018-11-05T09:46:08.139Z,11.00
2018-11-05T09:48:36.420Z,11.00
2018-11-05T09:51:04.771Z,10.90
2018-11-05T09:53:33.069Z,10.90
2018-11-05T09:56:01.391Z,11.00
2018-11-05T09:58:29.698Z,11.00
2018-11-05T10:00:58.189Z,11.00
2018-11-05T10:03:26.948Z,11.00
2018-11-05T10:05:54.996Z,10.90
2018-11-05T10:08:23.255Z,11.00
2018-11-05T10:10:51.495Z,11.00
2018-11-05T10:13:19.702Z,11.00
2018-11-05T10:15:47.935Z,11.00
2018-11-05T10:18:16.174Z,11.00
2018-11-05T10:20:44.477Z,11.00
2018-11-05T10:23:12.690Z,11.00
2018-11-05T10:25:41.011Z,11.00
2018-11-05T10:28:09.635Z,11.00
2018-11-05T10:30:37.906Z,11.10
2018-11-05T10:33:06.241Z,11.10
2018-11-05T10:35:40.594Z,11.10
2018-11-05T10:38:09.662Z,11.10
2018-11-05T10:40:39.219Z,11.10
2018-11-05T10:43:07.967Z,11.10
2018-11-05T10:45:36.633Z,11.10
2018-11-05T10:48:05.630Z,11.10
2018-11-05T10:50:34.255Z,11.10
2018-11-05T10:53:05.076Z,11.10
2018-11-05T10:55:33.911Z,11.10
2018-11-05T10:58:03.275Z,11.20
2018-11-05T11:00:37.492Z,11.20
2018-11-05T11:03:11.911Z,11.20
2018-11-05T11:05:41.058Z,11.20
2018-11-05T11:08:10.626Z,11.20
2018-11-05T11:10:40.232Z,11.20
2018-11-05T11:13:10.605Z,11.20
2018-11-05T11:15:39.356Z,11.20
2018-11-05T11:18:09.899Z,11.20
2018-11-05T11:20:39.113Z,11.20
2018-11-05T11:23:09.582Z,11.20
2018-11-05T11:25:38.552Z,11.30
2018-11-05T11:28:08.035Z,11.20
2018-11-05T11:30:39.375Z,11.30
2018-11-05T11:33:09.089Z,11.40
2018-11-05T11:35:37.819Z,11.40
2018-11-05T11:38:07.019Z,11.40
2018-11-05T11:40:35.629Z,11.40
2018-11-05T11:43:04.541Z,11.40
2018-11-05T11:45:33.619Z,11.40
2018-11-05T11:48:01.906Z,11.50
2018-11-05T11:50:30.206Z,11.60
2018-11-05T11:52:58.876Z,11.50
2018-11-05T11:55:27.203Z,11.50
2018-11-05T11:57:55.402Z,11.50
2018-11-05T12:00:25.049Z,11.50
2018-11-05T12:02:53.719Z,11.50
2018-11-05T12:05:22.235Z,11.60
2018-11-05T12:07:50.256Z,11.60
2018-11-05T12:10:20.190Z,11.60
2018-11-05T12:12:48.506Z,11.60
2018-11-05T12:15:17.690Z,11.60
2018-11-05T12:17:46.851Z,11.60
2018-11-05T12:20:17.256Z,11.60
2018-11-05T12:22:46.193Z,11.60
2018-11-05T12:25:14.468Z,11.60
2018-11-05T12:27:42.845Z,11.70
2018-11-05T12:30:15.354Z,11.70
2018-11-05T12:32:44.231Z,11.70
2018-11-05T12:35:13.031Z,11.80
2018-11-05T12:37:42.445Z,11.80
2018-11-05T12:40:13.567Z,11.80
2018-11-05T12:42:42.375Z,11.80
2018-11-05T12:45:11.196Z,11.80
2018-11-05T12:47:39.431Z,11.80
2018-11-05T12:50:10.011Z,11.80
2018-11-05T12:52:38.331Z,11.80
2018-11-05T12:55:07.523Z,11.90
2018-11-05T12:57:35.834Z,11.90
2018-11-05T13:00:05.342Z,11.90
2018-11-05T13:02:33.643Z,11.90
2018-11-05T13:05:01.892Z,11.90
2018-11-05T13:07:30.246Z,12.00
2018-11-05T13:09:58.493Z,12.00
2018-11-05T13:12:26.754Z,12.00
2018-11-05T13:14:55.005Z,12.00
2018-11-05T13:17:23.338Z,12.00
2018-11-05T13:19:51.635Z,12.00
2018-11-05T13:22:20.017Z,12.00
2018-11-05T13:24:48.289Z,12.00
2018-11-05T13:27:16.558Z,12.00
2018-11-05T13:29:44.875Z,12.00
2018-11-05T13:32:13.059Z,12.00
2018-11-05T13:34:41.317Z,12.00
2018-11-05T13:37:10.853Z,12.00
2018-11-05T13:39:39.772Z,12.00
2018-11-05T13:42:08.034Z,12.00
2018-11-05T13:44:36.482Z,12.00
2018-11-05T13:47:05.299Z,12.00
2018-11-05T13:49:33.429Z,12.00
2018-11-05T13:52:01.580Z,12.00
2018-11-05T13:54:30.069Z,12.00
2018-11-05T13:56:58.187Z,12.00
2018-11-05T13:59:26.481Z,12.00
2018-11-05T14:01:54.748Z,12.00
2018-11-05T14:04:23.033Z,12.00
2018-11-05T14:06:51.267Z,12.00
2018-11-05T14:09:19.519Z,12.00
2018-11-05T14:11:47.793Z,12.00
2018-11-05T14:14:16.136Z,12.00
2018-11-05T14:16:44.402Z,12.00
2018-11-05T14:19:12.679Z,12.00
2018-11-05T14:21:40.947Z,12.00
2018-11-05T14:24:09.221Z,11.90
2018-11-05T14:26:37.529Z,12.00
2018-11-05T14:29:05.972Z,12.00
2018-11-05T14:31:34.049Z,12.00
2018-11-05T14:34:02.341Z,12.00
2018-11-05T14:36:30.686Z,12.00
2018-11-05T14:38:58.960Z,12.00
2018-11-05T14:41:27.234Z,12.00
2018-11-05T14:43:55.520Z,12.00
2018-11-05T14:46:23.956Z,12.00
2018-11-05T14:48:52.216Z,12.00
2018-11-05T14:51:20.548Z,12.10
2018-11-05T14:53:48.753Z,12.00
2018-11-05T14:56:18.019Z,12.00
2018-11-05T14:58:46.340Z,12.00
2018-11-05T15:01:14.623Z,12.00
2018-11-05T15:03:42.948Z,12.00
2018-11-05T15:06:11.208Z,12.00
2018-11-05T15:08:39.482Z,12.00
2018-11-05T15:11:07.764Z,12.00
2018-11-05T15:13:36.078Z,12.10
2018-11-05T15:16:04.343Z,12.10
2018-11-05T15:18:32.790Z,12.10
2018-11-05T15:21:00.884Z,12.10
2018-11-05T15:23:29.166Z,12.10
2018-11-05T15:25:57.405Z,12.10
2018-11-05T15:28:25.733Z,12.10
2018-11-05T15:30:54.102Z,12.00
2018-11-05T15:33:22.399Z,12.00
2018-11-05T15:35:50.683Z,12.00
2018-11-05T15:38:19.030Z,12.00
2018-11-05T15:40:47.268Z,12.00
2018-11-05T15:43:15.467Z,12.00
2018-11-05T15:45:43.704Z,12.00
2018-11-05T15:48:11.940Z,12.00
2018-11-05T15:50:40.806Z,12.00
2018-11-05T15:53:09.792Z,12.00
2018-11-05T15:55:37.868Z,12.00
2018-11-05T15:58:06.157Z,12.00
2018-11-05T16:00:34.387Z,12.00
2018-11-05T16:03:02.940Z,12.00
2018-11-05T16:05:31.220Z,12.10
2018-11-05T16:07:59.469Z,12.10
2018-11-05T16:10:27.669Z,12.10
2018-11-05T16:12:55.956Z,12.10
2018-11-05T16:15:24.252Z,12.10
2018-11-05T16:17:52.472Z,12.10
2018-11-05T16:20:21.891Z,12.00
2018-11-05T16:22:50.909Z,12.00
2018-11-05T16:25:19.169Z,12.00
2018-11-05T16:27:47.407Z,12.00
2018-11-05T16:30:17.008Z,11.90
2018-11-05T16:32:45.771Z,11.90
2018-11-05T16:35:14.040Z,11.90
2018-11-05T16:37:42.275Z,11.90
2018-11-05T16:40:12.785Z,11.90
2018-11-05T16:42:41.299Z,11.90
2018-11-05T16:45:10.313Z,11.90
2018-11-05T16:47:39.211Z,11.90
2018-11-05T16:50:11.276Z,11.80
2018-11-05T16:52:39.544Z,11.80
2018-11-05T16:55:09.422Z,11.80
2018-11-05T16:57:37.628Z,11.80
2018-11-05T17:00:06.806Z,11.80
2018-11-05T17:02:35.350Z,11.80
2018-11-05T17:05:03.456Z,11.80
2018-11-05T17:07:31.722Z,11.80
2018-11-05T17:10:00.072Z,11.80
2018-11-05T17:12:28.413Z,11.80
2018-11-05T17:14:56.659Z,11.80
2018-11-05T17:17:24.982Z,11.80
2018-11-05T17:19:53.250Z,11.70
2018-11-05T17:22:21.691Z,11.80
2018-11-05T17:24:50.485Z,11.70
2018-11-05T17:27:18.811Z,11.80
2018-11-05T17:29:47.063Z,11.80
2018-11-05T17:32:15.486Z,11.80
2018-11-05T17:34:43.943Z,11.80
2018-11-05T17:37:12.779Z,11.80
2018-11-05T17:39:41.073Z,11.80
2018-11-05T17:42:09.326Z,11.80
2018-11-05T17:44:37.663Z,11.70
2018-11-05T17:47:06.164Z,11.70
2018-11-05T17:49:34.471Z,11.70
2018-11-05T17:52:02.820Z,11.70
2018-11-05T17:54:31.198Z,11.70
2018-11-05T17:56:59.575Z,11.70
2018-11-05T17:59:27.780Z,11.70
2018-11-05T18:01:56.131Z,11.70
2018-11-05T18:04:24.470Z,11.70
2018-11-05T18:06:52.884Z,11.70
2018-11-05T18:09:21.554Z,11.70
2018-11-05T18:11:49.835Z,11.70
2018-11-05T18:14:18.141Z,11.70
2018-11-05T18:16:46.618Z,11.70
2018-11-05T18:19:14.912Z,11.80
2018-11-05T18:21:43.165Z,11.80
2018-11-05T18:24:11.458Z,11.80
2018-11-05T18:26:39.688Z,11.70
2018-11-05T18:29:07.924Z,11.70
2018-11-05T18:31:36.235Z,11.70
2018-11-05T18:34:04.664Z,11.70
2018-11-05T18:36:33.015Z,11.70
2018-11-05T18:39:01.515Z,11.70
2018-11-05T18:41:30.335Z,11.70
2018-11-05T18:43:58.759Z,11.70
2018-11-05T18:46:27.047Z,11.70
2018-11-05T18:48:56.345Z,11.70
2018-11-05T18:51:24.641Z,11.60
2018-11-05T18:53:52.971Z,11.60
2018-11-05T18:56:21.237Z,11.60
2018-11-05T18:58:49.480Z,11.60
2018-11-05T19:01:17.701Z,11.60
2018-11-05T19:03:46.030Z,11.60
2018-11-05T19:06:14.150Z,11.60
2018-11-05T19:08:42.415Z,11.60
2018-11-05T19:11:11.677Z,11.50
2018-11-05T19:13:39.963Z,11.50
2018-11-05T19:16:08.217Z,11.50
2018-11-05T19:18:36.516Z,11.50
2018-11-05T19:21:05.243Z,11.50
2018-11-05T19:23:33.628Z,11.50
2018-11-05T19:26:01.756Z,11.50
2018-11-05T19:28:30.060Z,11.40
2018-11-05T19:30:58.352Z,11.40
2018-11-05T19:33:26.686Z,11.40
2018-11-05T19:35:54.843Z,11.40
2018-11-05T19:38:23.138Z,11.40
2018-11-05T19:40:51.386Z,11.40
2018-11-05T19:43:19.654Z,11.40
2018-11-05T19:45:47.849Z,11.30
2018-11-05T19:48:16.560Z,11.30
2018-11-05T19:50:44.843Z,11.30
2018-11-05T19:53:13.175Z,11.30
2018-11-05T19:55:41.494Z,11.20
2018-11-05T19:58:09.815Z,11.20
2018-11-05T20:00:38.214Z,11.20
2018-11-05T20:03:06.615Z,11.20
2018-11-05T20:05:34.964Z,11.20
2018-11-05T20:08:03.173Z,11.20
2018-11-05T20:10:31.439Z,11.20
2018-11-05T20:12:59.712Z,11.10
2018-11-05T20:15:27.997Z,11.10
2018-11-05T20:17:56.729Z,11.10
2018-11-05T20:20:25.756Z,11.10
2018-11-05T20:22:54.097Z,11.10
2018-11-05T20:25:22.615Z,11.10
2018-11-05T20:27:51.369Z,11.10
2018-11-05T20:30:27.519Z,11.10
2018-11-05T20:32:56.800Z,11.00
2018-11-05T20:35:24.836Z,11.00
2018-11-05T20:37:53.178Z,11.00
2018-11-05T20:40:22.181Z,11.00
2018-11-05T20:42:51.193Z,11.00
2018-11-05T20:45:21.041Z,11.00
2018-11-05T20:47:49.447Z,11.00
2018-11-05T20:50:18.395Z,11.00
2018-11-05T20:52:46.667Z,11.00
2018-11-05T20:55:16.343Z,11.00
2018-11-05T20:57:44.767Z,11.00
2018-11-05T21:00:14.491Z,11.00
2018-11-05T21:02:43.179Z,11.00
2018-11-05T21:05:13.168Z,11.00
2018-11-05T21:07:43.763Z,11.00
2018-11-05T21:10:16.109Z,11.00
2018-11-05T21:12:46.322Z,10.90
2018-11-05T21:15:19.111Z,10.90
2018-11-05T21:17:49.779Z,10.90
2018-11-05T21:20:20.360Z,10.90
2018-11-05T21:22:51.680Z,10.90
2018-11-05T21:25:22.815Z,10.90
2018-11-05T21:27:52.462Z,10.90
2018-11-05T21:30:22.675Z,10.90
2018-11-05T21:32:51.641Z,10.90
2018-11-05T21:35:22.740Z,10.90
2018-11-05T21:37:52.573Z,10.90
2018-11-05T21:40:24.210Z,10.90
2018-11-05T21:42:53.606Z,10.90
2018-11-05T21:45:24.845Z,10.90
2018-11-05T21:47:54.294Z,10.90
2018-11-05T21:50:25.259Z,10.90
2018-11-05T21:52:54.996Z,10.90
2018-11-05T21:55:26.493Z,10.90
2018-11-05T21:57:54.900Z,10.90
2018-11-05T22:00:24.514Z,10.80
2018-11-05T22:03:00.227Z,10.80
2018-11-05T22:05:28.511Z,10.80
2018-11-05T22:07:56.753Z,10.80
2018-11-05T22:10:25.068Z,10.80
2018-11-05T22:12:53.301Z,10.80
2018-11-05T22:15:21.566Z,10.80
2018-11-05T22:17:49.892Z,10.80
2018-11-05T22:20:18.119Z,10.80
2018-11-05T22:22:46.439Z,10.80
2018-11-05T22:25:14.672Z,10.80
2018-11-05T22:27:43.047Z,10.80
2018-11-05T22:30:11.782Z,10.80
2018-11-05T22:32:40.049Z,10.80
2018-11-05T22:35:08.342Z,10.70
2018-11-05T22:37:36.811Z,10.70
2018-11-05T22:40:07.699Z,10.70
2018-11-05T22:42:35.935Z,10.60
2018-11-05T22:45:05.009Z,10.60
2018-11-05T22:47:33.533Z,10.60
2018-11-05T22:50:02.024Z,10.60
2018-11-05T22:52:30.559Z,10.60
2018-11-05T22:54:59.169Z,10.60
2018-11-05T22:57:27.731Z,10.50
2018-11-05T22:59:57.188Z,10.50
2018-11-05T23:02:27.112Z,10.50
2018-11-05T23:04:57.892Z,10.50
2018-11-05T23:07:27.841Z,10.50
2018-11-05T23:09:58.370Z,10.50
2018-11-05T23:12:27.840Z,10.40
2018-11-05T23:14:57.179Z,10.40
2018-11-05T23:17:26.721Z,10.40
2018-11-05T23:19:57.192Z,10.40
2018-11-05T23:22:26.813Z,10.40
2018-11-05T23:24:56.301Z,10.40
2018-11-05T23:27:26.589Z,10.40
2018-11-05T23:29:56.234Z,10.30
2018-11-05T23:32:26.983Z,10.30
2018-11-05T23:34:56.429Z,10.30
2018-11-05T23:37:25.698Z,10.30
2018-11-05T23:39:54.882Z,10.30
2018-11-05T23:42:24.485Z,10.30
2018-11-05T23:44:53.858Z,10.40
2018-11-05T23:47:26.956Z,10.40
2018-11-05T23:49:56.497Z,10.40
2018-11-05T23:52:26.341Z,10.30
2018-11-05T23:54:55.668Z,10.30
2018-11-05T23:57:24.014Z,10.20
2018-11-05T23:59:52.291Z,10.20
